createdAt,value
2023-02-07T00:01:36.746Z,-3.60
2023-02-07T00:04:05.637Z,-3.40
2023-02-07T00:06:36.224Z,-2.80
2023-02-07T00:09:07.778Z,-3.10
2023-02-07T00:11:40.562Z,-3.20
2023-02-07T00:14:10.830Z,-3.30
2023-02-07T00:16:41.360Z,-3.00
2023-02-07T00:19:10.036Z,-3.50
2023-02-07T00:21:38.886Z,-3.00
2023-02-07T00:24:07.660Z,-3.30
2023-02-07T00:26:36.024Z,-3.30
2023-02-07T00:29:04.665Z,-3.80
2023-02-07T00:31:34.714Z,-3.80
2023-02-07T00:34:07.383Z,-4.30
2023-02-07T00:36:37.016Z,-4.30
2023-02-07T00:39:08.176Z,-4.00
2023-02-07T00:41:36.596Z,-4.40
2023-02-07T00:44:05.214Z,-4.00
2023-02-07T00:46:33.665Z,-3.50
2023-02-07T00:49:02.132Z,-3.50
2023-02-07T00:51:31.977Z,-4.20
2023-02-07T00:54:01.064Z,-4.60
2023-02-07T00:56:30.868Z,-3.70
2023-02-07T00:58:59.280Z,-4.10
2023-02-07T01:01:30.852Z,-4.20
2023-02-07T01:03:59.048Z,-4.20
2023-02-07T01:06:29.495Z,-4.30
2023-02-07T01:09:00.043Z,-4.40
2023-02-07T01:11:29.860Z,-4.30
2023-02-07T01:14:03.867Z,-3.80
2023-02-07T01:16:37.214Z,-4.20
2023-02-07T01:19:07.919Z,-4.60
2023-02-07T01:21:36.724Z,-4.10
2023-02-07T01:24:09.354Z,-3.90
2023-02-07T01:26:38.747Z,-4.20
2023-02-07T01:29:07.262Z,-4.10
2023-02-07T01:31:36.751Z,-4.30
2023-02-07T01:34:05.786Z,-4.40
2023-02-07T01:36:34.032Z,-4.20
2023-02-07T01:39:03.923Z,-4.80
2023-02-07T01:41:37.410Z,-4.00
2023-02-07T01:44:08.724Z,-4.80
2023-02-07T01:46:37.847Z,-4.60
2023-02-07T01:49:10.972Z,-4.60
2023-02-07T01:51:42.148Z,-4.60
2023-02-07T01:54:12.645Z,-3.70
2023-02-07T01:56:58.097Z,-4.10
2023-02-07T01:59:27.828Z,-3.90
2023-02-07T02:01:57.525Z,-4.30
2023-02-07T02:04:27.042Z,-3.90
2023-02-07T02:06:55.998Z,-4.40
2023-02-07T02:09:24.536Z,-4.50
2023-02-07T02:12:23.753Z,-4.10
2023-02-07T02:15:12.401Z,-4.60
2023-02-07T02:17:52.020Z,-4.00
2023-02-07T02:20:44.050Z,-4.30
2023-02-07T02:23:26.957Z,-4.10
2023-02-07T02:26:29.024Z,-4.60
2023-02-07T02:29:29.870Z,-4.60
2023-02-07T02:32:39.977Z,-4.80
2023-02-07T02:35:17.812Z,-4.00
2023-02-07T02:37:56.055Z,-4.00
2023-02-07T02:40:30.706Z,-4.80
2023-02-07T02:43:05.397Z,-4.70
2023-02-07T02:45:37.995Z,-4.90
2023-02-07T02:48:09.154Z,-4.60
2023-02-07T02:50:40.301Z,-4.80
2023-02-07T02:53:08.698Z,-5.00
2023-02-07T02:56:11.945Z,-5.00
2023-02-07T02:58:52.701Z,-4.00
2023-02-07T03:01:28.268Z,-3.80
2023-02-07T03:04:06.567Z,-3.70
2023-02-07T03:06:48.504Z,-4.10
2023-02-07T03:09:26.688Z,-4.30
2023-02-07T03:12:00.992Z,-4.30
2023-02-07T03:14:37.468Z,-4.80
2023-02-07T03:17:15.470Z,-4.90
2023-02-07T03:19:52.420Z,-5.00
2023-02-07T03:22:26.752Z,-5.10
2023-02-07T03:24:58.321Z,-5.00
2023-02-07T03:27:30.928Z,-5.10
2023-02-07T03:30:02.162Z,-5.30
2023-02-07T03:32:33.691Z,-5.30
2023-02-07T03:35:07.913Z,-5.50
2023-02-07T03:37:40.288Z,-5.30
2023-02-07T03:40:10.051Z,-5.60
2023-02-07T03:42:41.436Z,-5.60
2023-02-07T03:45:13.695Z,-5.80
2023-02-07T03:47:41.847Z,-5.60
2023-02-07T03:50:10.596Z,-5.90
2023-02-07T03:52:40.252Z,-6.00
2023-02-07T03:55:10.374Z,-5.60
2023-02-07T03:57:38.503Z,-5.60
2023-02-07T04:00:08.192Z,-6.00
2023-02-07T04:02:42.450Z,-6.10
2023-02-07T04:05:10.752Z,-6.10
2023-02-07T04:07:40.121Z,-6.00
2023-02-07T04:10:08.717Z,-6.00
2023-02-07T04:12:36.966Z,-6.10
2023-02-07T04:15:07.353Z,-6.20
2023-02-07T04:17:35.532Z,-6.10
2023-02-07T04:20:03.866Z,-6.20
2023-02-07T04:22:31.912Z,-6.10
2023-02-07T04:25:01.366Z,-6.10
2023-02-07T04:27:29.783Z,-6.00
2023-02-07T04:29:58.160Z,-6.20
2023-02-07T04:32:26.266Z,-6.40
2023-02-07T04:34:54.312Z,-6.30
2023-02-07T04:37:22.370Z,-6.20
2023-02-07T04:39:50.487Z,-6.40
2023-02-07T04:42:20.385Z,-6.40
2023-02-07T04:44:48.529Z,-5.70
2023-02-07T04:47:16.833Z,-5.90
2023-02-07T04:49:44.973Z,-6.10
2023-02-07T04:52:13.097Z,-6.00
2023-02-07T04:54:41.378Z,-6.00
2023-02-07T04:57:09.657Z,-5.90
2023-02-07T04:59:39.171Z,-6.10
2023-02-07T05:02:07.390Z,-6.00
2023-02-07T05:04:38.577Z,-6.20
2023-02-07T05:07:06.748Z,-6.30
2023-02-07T05:09:34.884Z,-6.40
2023-02-07T05:12:03.548Z,-6.50
2023-02-07T05:14:31.734Z,-6.60
2023-02-07T05:17:01.365Z,-6.60
2023-02-07T05:19:30.094Z,-6.70
2023-02-07T05:21:58.504Z,-6.90
2023-02-07T05:24:26.518Z,-6.80
2023-02-07T05:26:54.582Z,-6.80
2023-02-07T05:29:22.800Z,-6.50
2023-02-07T05:32:08.545Z,-6.50
2023-02-07T05:34:38.283Z,-6.60
2023-02-07T05:37:06.487Z,-6.70
2023-02-07T05:39:34.620Z,-6.20
2023-02-07T05:42:03.124Z,-6.40
2023-02-07T05:44:31.207Z,-6.20
2023-02-07T05:46:59.515Z,-6.10
2023-02-07T05:49:27.646Z,-6.40
2023-02-07T05:51:57.145Z,-5.30
2023-02-07T05:54:25.317Z,-6.10
2023-02-07T05:56:53.489Z,-6.10
2023-02-07T05:59:21.865Z,-6.00
2023-02-07T06:01:50.114Z,-6.20
2023-02-07T06:04:18.358Z,-5.90
2023-02-07T06:06:46.501Z,-6.20
2023-02-07T06:09:16.079Z,-6.50
2023-02-07T06:11:44.502Z,-6.60
2023-02-07T06:14:12.698Z,-6.60
2023-02-07T06:16:40.835Z,-6.50
2023-02-07T06:19:08.967Z,-6.50
2023-02-07T06:21:46.055Z,-6.50
2023-02-07T06:24:16.677Z,-6.50
2023-02-07T06:26:46.680Z,-6.40
2023-02-07T06:29:15.367Z,-6.50
2023-02-07T06:31:43.594Z,-6.50
2023-02-07T06:34:11.791Z,-5.90
2023-02-07T06:36:39.891Z,-6.40
2023-02-07T06:39:08.148Z,-6.40
2023-02-07T06:41:37.794Z,-6.20
2023-02-07T06:44:06.029Z,-6.20
2023-02-07T06:46:34.439Z,-6.30
2023-02-07T06:49:02.697Z,-6.20
2023-02-07T06:51:30.726Z,-5.30
2023-02-07T06:53:59.744Z,-3.30
2023-02-07T06:56:28.075Z,-5.60
2023-02-07T06:58:57.473Z,-5.70
2023-02-07T07:01:26.082Z,-6.00
2023-02-07T07:03:54.177Z,-5.60
2023-02-07T07:06:22.601Z,-5.30
2023-02-07T07:08:51.693Z,-5.60
2023-02-07T07:11:20.751Z,-5.20
2023-02-07T07:13:48.998Z,-5.20
2023-02-07T07:16:18.587Z,-5.20
2023-02-07T07:18:46.899Z,-5.30
2023-02-07T07:21:15.072Z,-5.60
2023-02-07T07:23:43.208Z,-5.70
2023-02-07T07:26:11.383Z,-5.50
2023-02-07T07:28:39.406Z,-5.60
2023-02-07T07:31:09.298Z,-5.90
2023-02-07T07:33:38.894Z,-5.00
2023-02-07T07:36:09.873Z,-5.20
2023-02-07T07:38:38.744Z,-4.90
2023-02-07T07:41:07.180Z,-5.20
2023-02-07T07:43:35.476Z,-5.30
2023-02-07T07:46:03.561Z,-4.90
2023-02-07T07:48:31.828Z,-4.70
2023-02-07T07:51:01.496Z,-5.10
2023-02-07T07:53:29.645Z,-5.00
2023-02-07T07:55:59.006Z,-4.40
2023-02-07T07:58:27.834Z,-4.90
2023-02-07T08:00:56.201Z,-4.40
2023-02-07T08:03:25.043Z,-4.50
2023-02-07T08:05:53.274Z,-4.70
2023-02-07T08:08:22.719Z,-4.30
2023-02-07T08:10:51.287Z,-4.40
2023-02-07T08:13:20.170Z,-4.10
2023-02-07T08:15:48.470Z,-4.10
2023-02-07T08:18:16.668Z,-4.30
2023-02-07T08:20:47.960Z,-4.10
2023-02-07T08:23:16.199Z,-4.10
2023-02-07T08:25:46.783Z,-4.30
2023-02-07T08:28:15.246Z,-4.00
2023-02-07T08:30:43.695Z,-3.70
2023-02-07T08:33:11.777Z,-3.60
2023-02-07T08:35:39.935Z,-3.70
2023-02-07T08:38:08.372Z,-3.00
2023-02-07T08:40:37.459Z,-2.80
2023-02-07T08:43:12.198Z,-3.20
2023-02-07T08:45:40.632Z,-3.00
2023-02-07T08:48:09.226Z,-3.20
2023-02-07T08:50:37.685Z,-3.10
2023-02-07T08:53:06.115Z,-2.90
2023-02-07T08:55:34.417Z,-3.00
2023-02-07T08:58:02.636Z,-3.30
2023-02-07T09:00:32.135Z,-2.80
2023-02-07T09:03:00.197Z,-2.40
2023-02-07T09:05:28.294Z,-2.60
2023-02-07T09:07:56.391Z,-2.90
2023-02-07T09:10:24.586Z,-2.70
2023-02-07T09:12:52.724Z,-2.50
2023-02-07T09:15:21.104Z,-2.70
2023-02-07T09:17:50.715Z,-2.60
2023-02-07T09:20:18.896Z,-2.20
2023-02-07T09:23:04.624Z,-2.20
2023-02-07T09:25:32.782Z,-2.40
2023-02-07T09:28:01.031Z,-2.10
2023-02-07T09:30:29.191Z,-2.10
2023-02-07T09:32:59.866Z,-2.00
2023-02-07T09:35:28.076Z,-1.90
2023-02-07T09:37:57.011Z,-1.90
2023-02-07T09:40:25.420Z,-1.90
2023-02-07T09:42:58.777Z,-1.90
2023-02-07T09:45:32.621Z,-1.70
2023-02-07T09:48:09.460Z,-1.60
2023-02-07T09:50:46.168Z,-1.50
2023-02-07T09:53:18.675Z,-1.50
2023-02-07T09:55:52.509Z,-1.30
2023-02-07T09:58:24.917Z,-1.30
2023-02-07T10:01:01.120Z,-1.30
2023-02-07T10:03:32.684Z,-1.30
2023-02-07T10:06:12.673Z,-1.30
2023-02-07T10:08:45.824Z,-1.20
2023-02-07T10:11:23.998Z,-1.10
2023-02-07T10:14:03.631Z,-0.90
2023-02-07T10:16:48.568Z,-1.00
2023-02-07T10:19:33.290Z,-0.90
2023-02-07T10:22:13.275Z,-0.80
2023-02-07T10:25:10.241Z,-0.80
2023-02-07T10:27:44.568Z,-0.70
2023-02-07T10:30:17.296Z,-0.60
2023-02-07T10:32:47.506Z,-0.60
2023-02-07T10:35:20.775Z,-0.40
2023-02-07T10:37:51.610Z,-0.40
2023-02-07T10:40:26.225Z,-0.30
2023-02-07T10:43:01.368Z,-0.20
2023-02-07T10:45:29.765Z,-0.10
2023-02-07T10:47:58.670Z,-0.10
2023-02-07T10:50:30.470Z,0.00
2023-02-07T10:53:00.403Z,0.10
2023-02-07T10:55:42.988Z,0.10
2023-02-07T10:58:23.094Z,0.20
2023-02-07T11:00:53.663Z,0.20
2023-02-07T11:03:23.042Z,0.20
2023-02-07T11:05:58.620Z,0.30
2023-02-07T11:08:28.487Z,0.40
2023-02-07T11:10:58.704Z,0.50
2023-02-07T11:13:29.230Z,0.70
2023-02-07T11:16:01.253Z,0.70
2023-02-07T11:18:43.437Z,0.80
2023-02-07T11:21:40.646Z,0.70
2023-02-07T11:24:15.104Z,0.70
2023-02-07T11:27:05.058Z,0.80
2023-02-07T11:29:50.602Z,0.80
2023-02-07T11:32:19.299Z,0.90
2023-02-07T11:34:50.719Z,1.00
2023-02-07T11:37:25.985Z,1.10
2023-02-07T11:39:56.225Z,1.30
2023-02-07T11:42:26.791Z,1.30
2023-02-07T11:44:54.933Z,1.60
2023-02-07T11:47:27.700Z,1.90
2023-02-07T11:49:59.419Z,1.90
2023-02-07T11:52:31.899Z,1.70
2023-02-07T11:55:02.567Z,1.50
2023-02-07T11:57:33.663Z,1.50
2023-02-07T12:00:08.115Z,1.60
2023-02-07T12:02:42.927Z,2.00
2023-02-07T12:05:19.429Z,1.70
2023-02-07T12:07:53.822Z,1.80
2023-02-07T12:10:24.293Z,2.20
2023-02-07T12:12:57.521Z,2.10
2023-02-07T12:15:33.101Z,2.20
2023-02-07T12:18:07.355Z,2.50
2023-02-07T12:20:40.105Z,1.80
2023-02-07T12:23:40.687Z,1.70
2023-02-07T12:26:15.138Z,2.10
2023-02-07T12:28:49.764Z,2.20
2023-02-07T12:31:23.652Z,2.10
2023-02-07T12:33:58.461Z,2.40
2023-02-07T12:36:32.540Z,2.60
2023-02-07T12:39:06.620Z,2.80
2023-02-07T12:41:42.233Z,2.90
2023-02-07T12:44:21.073Z,3.10
2023-02-07T12:47:01.382Z,3.00
2023-02-07T12:49:50.873Z,3.00
2023-02-07T12:52:30.151Z,2.90
2023-02-07T12:55:13.638Z,3.30
2023-02-07T12:57:50.783Z,3.30
2023-02-07T13:00:24.343Z,3.50
2023-02-07T13:03:05.620Z,3.70
2023-02-07T13:05:45.542Z,3.70
2023-02-07T13:08:24.462Z,3.40
2023-02-07T13:11:02.857Z,3.70
2023-02-07T13:13:36.777Z,3.60
2023-02-07T13:16:11.045Z,3.70
2023-02-07T13:18:46.084Z,3.30
2023-02-07T13:21:22.745Z,3.10
2023-02-07T13:23:51.302Z,4.20
2023-02-07T13:26:26.248Z,4.00
2023-02-07T13:28:57.738Z,4.20
2023-02-07T13:31:35.715Z,5.00
2023-02-07T13:34:04.406Z,4.00
2023-02-07T13:36:39.236Z,4.50
2023-02-07T13:39:34.886Z,4.30
2023-02-07T13:42:16.757Z,4.80
2023-02-07T13:44:55.891Z,4.10
2023-02-07T13:47:55.482Z,4.90
2023-02-07T13:50:52.497Z,4.70
2023-02-07T13:53:35.693Z,4.90
2023-02-07T13:56:04.696Z,4.60
2023-02-07T13:59:13.604Z,5.60
2023-02-07T14:01:51.204Z,4.50
2023-02-07T14:04:20.427Z,4.30
2023-02-07T14:07:01.628Z,4.60
2023-02-07T14:09:34.818Z,4.60
2023-02-07T14:12:05.186Z,4.80
2023-02-07T14:14:36.877Z,4.90
2023-02-07T14:17:06.905Z,4.50
2023-02-07T14:19:53.772Z,4.90
2023-02-07T14:22:27.778Z,4.90
2023-02-07T14:25:24.002Z,4.80
2023-02-07T14:28:20.620Z,5.20
2023-02-07T14:31:11.918Z,4.70
2023-02-07T14:33:40.526Z,4.20
2023-02-07T14:36:25.930Z,4.60
2023-02-07T14:39:23.464Z,4.80
2023-02-07T14:41:53.379Z,4.30
2023-02-07T14:44:28.100Z,4.30
2023-02-07T14:47:00.063Z,4.90
2023-02-07T14:49:33.642Z,4.20
2023-02-07T14:52:05.661Z,5.20
2023-02-07T14:54:42.867Z,4.90
2023-02-07T14:57:25.322Z,5.40
2023-02-07T15:00:02.660Z,4.70
2023-02-07T15:02:34.624Z,4.80
2023-02-07T15:05:21.561Z,4.70
2023-02-07T15:07:55.066Z,5.20
2023-02-07T15:10:27.196Z,6.30
2023-02-07T15:12:56.019Z,4.90
2023-02-07T15:15:26.821Z,4.80
2023-02-07T15:17:59.067Z,4.70
2023-02-07T15:20:30.952Z,4.70
2023-02-07T15:23:01.813Z,4.90
2023-02-07T15:25:30.870Z,4.50
2023-02-07T15:28:07.734Z,4.40
2023-02-07T15:30:37.755Z,4.80
2023-02-07T15:33:17.966Z,5.20
2023-02-07T15:35:46.028Z,5.10
2023-02-07T15:38:17.010Z,5.60
2023-02-07T15:40:45.258Z,5.50
2023-02-07T15:43:26.720Z,5.80
2023-02-07T15:46:04.347Z,4.60
2023-02-07T15:48:34.080Z,4.50
2023-02-07T15:51:05.441Z,5.10
2023-02-07T15:53:33.832Z,5.40
2023-02-07T15:56:05.645Z,4.90
2023-02-07T15:58:35.848Z,4.30
2023-02-07T16:01:06.116Z,4.20
2023-02-07T16:03:43.895Z,4.00
2023-02-07T16:06:17.901Z,3.00
2023-02-07T16:08:46.592Z,2.90
2023-02-07T16:11:19.225Z,3.00
2023-02-07T16:13:50.396Z,3.00
2023-02-07T16:16:25.572Z,2.90
2023-02-07T16:19:06.454Z,2.90
2023-02-07T16:21:36.666Z,2.10
2023-02-07T16:24:08.803Z,2.00
2023-02-07T16:26:37.983Z,1.80
2023-02-07T16:29:07.195Z,2.00
2023-02-07T16:31:36.406Z,1.40
2023-02-07T16:34:05.942Z,1.10
2023-02-07T16:36:33.989Z,1.10
2023-02-07T16:39:02.194Z,1.10
2023-02-07T16:41:32.782Z,1.20
2023-02-07T16:44:02.396Z,1.30
2023-02-07T16:46:30.578Z,0.90
2023-02-07T16:48:58.672Z,0.70
2023-02-07T16:51:28.256Z,0.60
2023-02-07T16:53:56.517Z,0.40
2023-02-07T16:56:28.098Z,0.30
2023-02-07T16:58:56.129Z,0.40
2023-02-07T17:01:24.321Z,0.30
2023-02-07T17:03:52.557Z,0.70
2023-02-07T17:06:23.041Z,-0.10
2023-02-07T17:08:53.922Z,-0.20
2023-02-07T17:11:25.900Z,-0.60
2023-02-07T17:13:54.620Z,-0.40
2023-02-07T17:16:23.589Z,-0.80
2023-02-07T17:18:52.500Z,-0.90
2023-02-07T17:21:22.384Z,-0.90
2023-02-07T17:23:52.265Z,-0.80
2023-02-07T17:26:25.461Z,-0.50
2023-02-07T17:28:53.848Z,-0.80
2023-02-07T17:31:22.947Z,-0.70
2023-02-07T17:33:52.213Z,-1.00
2023-02-07T17:36:20.597Z,-1.20
2023-02-07T17:38:48.790Z,-0.70
2023-02-07T17:41:20.123Z,-1.30
2023-02-07T17:43:48.332Z,-1.50
2023-02-07T17:46:19.669Z,-1.30
2023-02-07T17:48:50.806Z,-1.10
2023-02-07T17:51:20.930Z,-1.40
2023-02-07T17:53:49.016Z,-1.40
2023-02-07T17:56:24.711Z,-1.70
2023-02-07T17:58:54.041Z,-1.90
2023-02-07T18:01:22.393Z,-1.90
2023-02-07T18:03:52.919Z,-2.10
2023-02-07T18:08:52.074Z,-2.40
2023-02-07T18:11:22.392Z,-2.20
2023-02-07T18:13:50.633Z,-2.10
2023-02-07T18:16:21.948Z,-2.10
2023-02-07T18:18:50.110Z,-2.20
2023-02-07T18:21:18.381Z,-2.20
2023-02-07T18:23:46.816Z,-2.40
2023-02-07T18:26:19.390Z,-2.50
2023-02-07T18:28:49.184Z,-2.60
2023-02-07T18:31:19.167Z,-2.70
2023-02-07T18:33:47.764Z,-2.90
2023-02-07T18:36:16.350Z,-2.80
2023-02-07T18:38:44.451Z,-2.90
2023-02-07T18:41:14.099Z,-2.90
2023-02-07T18:43:42.665Z,-3.00
2023-02-07T18:46:13.498Z,-3.10
2023-02-07T18:48:41.883Z,-3.20
2023-02-07T18:51:12.339Z,-3.20
2023-02-07T18:53:41.247Z,-3.20
2023-02-07T18:56:12.376Z,-3.30
2023-02-07T18:58:40.528Z,-3.40
2023-02-07T19:01:13.086Z,-3.50
2023-02-07T19:03:41.157Z,-3.70
2023-02-07T19:06:09.750Z,-3.80
2023-02-07T19:08:38.328Z,-4.00
2023-02-07T19:11:08.190Z,-4.10
2023-02-07T19:13:36.777Z,-4.10
2023-02-07T19:16:06.135Z,-4.30
2023-02-07T19:18:36.375Z,-4.40
2023-02-07T19:21:05.635Z,-4.30
2023-02-07T19:23:33.797Z,-4.30
2023-02-07T19:26:02.279Z,-4.30
2023-02-07T19:28:30.743Z,-4.40
2023-02-07T19:30:59.067Z,-4.40
2023-02-07T19:33:27.271Z,-4.30
2023-02-07T19:35:57.011Z,-4.20
2023-02-07T19:38:25.108Z,-4.20
2023-02-07T19:40:57.589Z,-4.30
2023-02-07T19:43:25.985Z,-4.40
2023-02-07T19:45:54.435Z,-4.40
2023-02-07T19:48:22.616Z,-4.40
2023-02-07T19:51:00.526Z,-4.40
2023-02-07T19:53:29.793Z,-4.50
2023-02-07T19:56:02.407Z,-4.70
2023-02-07T19:58:30.889Z,-4.80
2023-02-07T20:00:59.965Z,-5.00
2023-02-07T20:03:28.161Z,-5.00
2023-02-07T20:05:56.190Z,-5.40
2023-02-07T20:08:26.091Z,-5.60
2023-02-07T20:10:54.356Z,-5.70
2023-02-07T20:13:22.459Z,-5.40
2023-02-07T20:15:50.578Z,-5.60
2023-02-07T20:18:18.728Z,-4.70
2023-02-07T20:20:48.268Z,-4.90
2023-02-07T20:23:16.539Z,-5.30
2023-02-07T20:25:46.145Z,-5.60
2023-02-07T20:28:14.348Z,-6.00
2023-02-07T20:30:45.788Z,-5.90
2023-02-07T20:33:14.079Z,-5.80
2023-02-07T20:35:42.189Z,-5.90
2023-02-07T20:38:10.433Z,-6.10
2023-02-07T20:40:38.759Z,-6.10
2023-02-07T20:43:08.309Z,-5.40
2023-02-07T20:45:36.537Z,-5.10
2023-02-07T20:48:04.837Z,-5.20
2023-02-07T20:50:34.818Z,-5.10
2023-02-07T20:53:02.985Z,-5.40
2023-02-07T20:55:31.129Z,-5.00
2023-02-07T20:57:59.442Z,-5.10
2023-02-07T21:00:28.890Z,-5.60
2023-02-07T21:02:57.001Z,-5.90
2023-02-07T21:05:25.062Z,-5.80
2023-02-07T21:07:53.159Z,-5.40
2023-02-07T21:10:21.363Z,-5.40
2023-02-07T21:12:49.554Z,-6.30
2023-02-07T21:15:17.907Z,-6.60
2023-02-07T21:17:47.378Z,-6.60
2023-02-07T21:20:16.245Z,-6.40
2023-02-07T21:22:44.863Z,-5.90
2023-02-07T21:25:12.956Z,-6.30
2023-02-07T21:27:41.050Z,-6.80
2023-02-07T21:30:10.306Z,-6.90
2023-02-07T21:32:38.384Z,-6.80
2023-02-07T21:35:08.361Z,-6.70
2023-02-07T21:37:36.374Z,-6.60
2023-02-07T21:40:04.824Z,-6.60
2023-02-07T21:42:33.034Z,-6.60
2023-02-07T21:45:01.070Z,-6.80
2023-02-07T21:47:29.400Z,-6.60
2023-02-07T21:49:57.859Z,-6.90
2023-02-07T21:52:27.302Z,-7.30
2023-02-07T21:54:55.422Z,-6.90
2023-02-07T21:57:23.717Z,-7.00
2023-02-07T21:59:51.872Z,-6.40
2023-02-07T22:02:20.479Z,-6.10
2023-02-07T22:04:48.651Z,-5.90
2023-02-07T22:07:16.719Z,-5.60
2023-02-07T22:09:46.308Z,-5.90
2023-02-07T22:12:14.420Z,-6.20
2023-02-07T22:14:42.651Z,-6.10
2023-02-07T22:17:11.277Z,-6.30
2023-02-07T22:19:39.394Z,-6.10
2023-02-07T22:22:07.544Z,-6.40
2023-02-07T22:24:35.817Z,-6.50
2023-02-07T22:27:05.401Z,-6.70
2023-02-07T22:29:33.532Z,-6.50
2023-02-07T22:32:01.665Z,-6.60
2023-02-07T22:34:29.865Z,-7.10
2023-02-07T22:36:57.966Z,-7.40
2023-02-07T22:39:25.990Z,-7.50
2023-02-07T22:41:56.185Z,-7.40
2023-02-07T22:44:25.891Z,-7.30
2023-02-07T22:46:54.024Z,-7.50
2023-02-07T22:49:22.087Z,-7.10
2023-02-07T22:51:50.475Z,-6.80
2023-02-07T22:54:19.720Z,-6.60
2023-02-07T22:56:48.171Z,-6.60
2023-02-07T22:59:16.813Z,-7.00
2023-02-07T23:01:46.746Z,-7.10
2023-02-07T23:04:17.358Z,-7.10
2023-02-07T23:06:46.230Z,-7.00
2023-02-07T23:09:14.370Z,-7.20
2023-02-07T23:11:42.475Z,-7.20
2023-02-07T23:14:10.591Z,-6.80
2023-02-07T23:16:39.265Z,-6.90
2023-02-07T23:19:13.312Z,-7.30
2023-02-07T23:21:41.696Z,-7.00
2023-02-07T23:24:10.591Z,-7.20
2023-02-07T23:26:39.351Z,-7.30
2023-02-07T23:29:07.636Z,-7.40
2023-02-07T23:31:36.117Z,-7.40
2023-02-07T23:34:04.282Z,-7.40
2023-02-07T23:36:33.668Z,-6.80
2023-02-07T23:39:01.781Z,-6.70
2023-02-07T23:41:30.531Z,-6.80
2023-02-07T23:44:00.289Z,-7.20
2023-02-07T23:46:30.077Z,-7.20
2023-02-07T23:48:58.193Z,-7.10
2023-02-07T23:51:27.278Z,-7.20
2023-02-07T23:53:56.805Z,-7.30
2023-02-07T23:56:25.310Z,-7.30
2023-02-07T23:58:54.037Z,-7.30
